Time;durP1;ratioP1;P1;durP2;ratioP2;P2;SDS_P1;SDS_P2;PMS_P1;PMS_P2;Temp;Humidity;BMP_temperature;BMP_pressure;BME280_temperature;BME280_humidity;BME280_pressure;Samples;Min_cycle;Max_cycle;Signal;HPM_P1;HPM_P2
2023/05/19 00:00:24;;;;;;;1.52;1.05;;;;;;;29.75;36.96;100756.47;4852058;29;20099;-70
2023/05/19 00:02:54;;;;;;;5.22;1.23;;;;;;;29.68;36.41;100760.38;4860116;29;20059;-71
2023/05/19 00:05:23;;;;;;;5.43;1.33;;;;;;;29.69;36.40;100755.91;4848325;29;20061;-72
2023/05/19 00:07:58;;;;;;;2.35;1.02;;;;;;;29.60;36.87;100762.56;4860259;29;20046;-72
2023/05/19 00:10:30;;;;;;;1.95;1.13;;;;;;;29.64;36.20;100758.78;4862483;29;20057;-72
2023/05/19 00:12:58;;;;;;;;;;;;;;;29.66;36.18;100762.22;4864818;29;20057;-70
2023/05/19 00:15:28;;;;;;;2.40;1.20;;;;;;;29.62;35.84;100755.34;4854279;29;19924;-72
2023/05/19 00:17:58;;;;;;;3.72;1.10;;;;;;;29.61;36.17;100749.13;4854133;29;20416;-73
2023/05/19 00:20:27;;;;;;;1.70;1.20;;;;;;;29.66;36.53;100754.22;4848957;29;20123;-71
2023/05/19 00:22:55;;;;;;;1.90;0.88;;;;;;;29.64;36.18;100753.44;4857078;29;20064;-74
2023/05/19 00:25:24;;;;;;;1.20;0.98;;;;;;;29.49;36.24;100748.91;4851998;29;20053;-72
2023/05/19 00:27:52;;;;;;;4.18;1.13;;;;;;;29.34;37.23;100756.69;4861382;29;20050;-71
2023/05/19 00:30:22;;;;;;;2.90;0.80;;;;;;;29.27;37.29;100754.41;4850805;29;20448;-73
2023/05/19 00:32:50;;;;;;;1.52;0.80;;;;;;;29.31;37.39;100761.31;4849927;29;20062;-76
2023/05/19 00:35:23;;;;;;;1.85;1.40;;;;;;;29.33;36.61;100760.31;4856569;29;20488;-74
2023/05/19 00:37:52;;;;;;;3.50;1.05;;;;;;;29.31;37.84;100762.19;4853917;29;20049;-74
2023/05/19 00:40:21;;;;;;;3.45;0.82;;;;;;;29.31;37.32;100759.50;4851339;29;20528;-73
2023/05/19 00:42:49;;;;;;;1.95;1.10;;;;;;;29.30;37.64;100759.56;4845016;29;20474;-73
2023/05/19 00:45:18;;;;;;;1.10;1.00;;;;;;;29.27;36.73;100755.25;4860309;29;20504;-74
2023/05/19 00:47:48;;;;;;;3.22;1.00;;;;;;;29.27;37.40;100771.25;4847332;29;20106;-73
2023/05/19 00:50:16;;;;;;;2.78;1.20;;;;;;;29.04;36.91;100780.31;4852690;29;20591;-73
2023/05/19 00:52:47;;;;;;;3.58;1.00;;;;;;;28.96;37.91;100772.69;4864768;29;20619;-74
2023/05/19 00:55:15;;;;;;;3.35;0.80;;;;;;;28.91;37.52;100769.38;4857779;29;20056;-76
2023/05/19 00:57:44;;;;;;;1.95;0.82;;;;;;;28.71;37.90;100780.09;4858073;29;20049;-76
2023/05/19 01:00:15;;;;;;;4.55;0.90;;;;;;;28.56;38.26;100774.50;4848804;29;20069;-74
2023/05/19 01:02:44;;;;;;;1.45;0.80;;;;;;;28.48;38.88;100774.00;4857066;29;20057;-75
2023/05/19 01:05:13;;;;;;;9.43;1.02;;;;;;;28.42;38.96;100779.56;4868617;29;20133;-75
2023/05/19 01:07:42;;;;;;;4.22;0.80;;;;;;;28.35;38.79;100778.97;4856555;29;20061;-75
2023/05/19 01:10:13;;;;;;;2.53;0.85;;;;;;;28.32;39.03;100781.78;4862419;29;20053;-74
2023/05/19 01:12:42;;;;;;;2.65;0.82;;;;;;;28.34;38.78;100784.38;4865383;29;20133;-75
2023/05/19 01:15:11;;;;;;;1.65;0.90;;;;;;;28.28;38.72;100784.66;4858061;29;20185;-76
2023/05/19 01:17:48;;;;;;;1.58;0.80;;;;;;;28.17;39.05;100788.63;4860301;29;20057;-73
2023/05/19 01:20:22;;;;;;;3.45;0.80;;;;;;;28.13;39.56;100783.50;4858680;29;20513;-77
2023/05/19 01:23:19;;;;;;;0.73;0.63;;;;;;;28.09;39.15;100789.91;4866372;29;20057;-76
2023/05/19 01:26:26;;;;;;;2.25;1.15;;;;;;;28.04;39.10;100791.88;4848152;29;20144;-73
2023/05/19 01:29:23;;;;;;;2.90;1.10;;;;;;;28.02;38.45;100804.41;4843788;29;20515;-78
2023/05/19 01:31:55;;;;;;;2.90;1.00;;;;;;;27.91;38.53;100802.19;4859252;29;20060;-76
2023/05/19 01:34:27;;;;;;;2.53;1.00;;;;;;;27.71;38.40;100801.16;4862672;29;20057;-73
2023/05/19 01:36:56;;;;;;;4.00;1.33;;;;;;;27.58;37.77;100805.28;4866069;29;20059;-74
2023/05/19 01:39:26;;;;;;;4.38;1.10;;;;;;;27.52;37.69;100800.22;4857829;29;20045;-74
2023/05/19 01:41:55;;;;;;;2.35;0.90;;;;;;;27.48;38.70;100801.25;4856397;29;20052;-74
2023/05/19 01:44:24;;;;;;;3.95;0.93;;;;;;;27.46;38.31;100805.75;4864994;29;20053;-75
2023/05/19 01:46:55;;;;;;;4.25;1.38;;;;;;;27.45;38.55;100807.56;4865010;29;20050;-73
2023/05/19 01:49:24;;;;;;;2.58;1.02;;;;;;;27.47;38.85;100803.06;4856789;29;20057;-73
2023/05/19 01:51:54;;;;;;;2.65;0.70;;;;;;;27.43;38.99;100801.44;4855298;29;20125;-74
2023/05/19 01:54:23;;;;;;;1.50;0.90;;;;;;;27.37;39.40;100801.66;4856838;29;20058;-75
2023/05/19 01:57:00;;;;;;;3.00;1.10;;;;;;;27.31;39.83;100802.78;4867354;29;20500;-76
2023/05/19 01:59:38;;;;;;;1.48;1.00;;;;;;;27.24;40.34;100801.31;4858519;29;20069;-75
2023/05/19 02:02:16;;;;;;;5.10;1.13;;;;;;;27.15;40.09;100807.81;4874015;29;20052;-74
2023/05/19 02:04:51;;;;;;;1.42;0.88;;;;;;;26.93;40.48;100812.19;4857233;29;20053;-77
2023/05/19 02:07:31;;;;;;;1.63;0.90;;;;;;;26.84;40.59;100816.06;4859102;29;20058;-75
2023/05/19 02:10:05;;;;;;;4.43;0.88;;;;;;;26.77;41.43;100813.69;4857986;29;20077;-74
2023/05/19 02:12:37;;;;;;;2.95;0.65;;;;;;;26.73;41.30;100818.25;4856737;29;20088;-73
2023/05/19 02:15:08;;;;;;;2.53;1.13;;;;;;;26.67;41.29;100821.13;4857201;29;20049;-72
2023/05/19 02:17:41;;;;;;;3.20;1.00;;;;;;;26.54;41.77;100824.22;4857858;29;20405;-75
2023/05/19 02:20:11;;;;;;;6.45;0.73;;;;;;;26.36;41.92;100827.50;4859083;29;20064;-75
2023/05/19 02:22:39;;;;;;;2.15;0.88;;;;;;;26.28;42.25;100832.22;4857488;29;20501;-73
2023/05/19 02:25:08;;;;;;;1.50;0.90;;;;;;;26.20;42.28;100836.91;4846173;29;20082;-75
2023/05/19 02:27:38;;;;;;;3.40;1.00;;;;;;;26.12;42.19;100840.69;4850112;29;20060;-74
2023/05/19 02:30:08;;;;;;;2.33;0.90;;;;;;;26.03;42.11;100835.69;4854468;29;20114;-73
2023/05/19 02:32:39;;;;;;;3.47;1.23;;;;;;;25.97;42.17;100835.03;4843504;29;20151;-74
2023/05/19 02:35:08;;;;;;;2.45;1.10;;;;;;;25.91;42.24;100844.94;4849989;29;20766;-73
2023/05/19 02:37:36;;;;;;;1.80;0.90;;;;;;;25.75;42.60;100856.03;4849048;29;20050;-73
2023/05/19 02:40:06;;;;;;;1.35;0.95;;;;;;;25.66;43.15;100855.41;4854823;29;20452;-73
2023/05/19 02:42:35;;;;;;;1.40;1.00;;;;;;;25.62;43.24;100860.84;4856733;29;20055;-73
2023/05/19 02:45:03;;;;;;;4.82;1.05;;;;;;;25.55;43.02;100869.91;4848083;29;20105;-72
2023/05/19 02:47:32;;;;;;;3.60;1.17;;;;;;;25.39;43.07;100873.03;4866160;29;20124;-73
2023/05/19 02:50:02;;;;;;;3.25;1.10;;;;;;;25.27;43.15;100878.69;4853208;29;20049;-69
2023/05/19 02:52:30;;;;;;;4.50;1.33;;;;;;;25.13;42.89;100879.06;4869360;29;20109;-71
2023/05/19 02:54:59;;;;;;;1.20;1.00;;;;;;;24.97;43.24;100880.41;4865843;29;20046;-71
2023/05/19 02:57:31;;;;;;;1.55;1.00;;;;;;;24.82;43.57;100874.63;4860502;29;20109;-71
2023/05/19 03:00:00;;;;;;;2.15;1.13;;;;;;;24.63;43.84;100870.75;4857352;29;20126;-71
2023/05/19 03:02:29;;;;;;;3.03;1.13;;;;;;;24.56;44.62;100866.56;4861321;29;20053;-70
2023/05/19 03:04:57;;;;;;;1.80;1.00;;;;;;;24.46;44.57;100876.44;4850039;29;20050;-71
2023/05/19 03:07:27;;;;;;;2.35;1.00;;;;;;;24.34;44.61;100885.56;4850165;29;20508;-71
2023/05/19 03:10:02;;;;;;;2.00;1.20;;;;;;;24.21;44.51;100886.78;4858362;29;20610;-70
2023/05/19 03:12:31;;;;;;;2.35;1.20;;;;;;;24.08;45.36;100886.25;4856242;29;20049;-71
2023/05/19 03:15:00;;;;;;;2.13;0.90;;;;;;;23.96;45.46;100884.75;4857826;29;20042;-71
2023/05/19 03:17:32;;;;;;;2.08;1.38;;;;;;;23.87;46.14;100887.63;4852121;29;20132;-73
2023/05/19 03:20:01;;;;;;;3.67;1.20;;;;;;;23.70;45.97;100895.03;4849795;29;20064;-74
2023/05/19 03:22:32;;;;;;;2.15;1.15;;;;;;;23.61;46.00;100899.59;4852275;29;20191;-72
2023/05/19 03:25:00;;;;;;;2.42;1.35;;;;;;;;;;4851193;29;20049;-73
2023/05/19 03:27:28;;;;;;;1.40;1.10;;;;;;;23.44;46.92;100892.97;4860859;29;20492;-72
2023/05/19 03:29:57;;;;;;;6.25;1.40;;;;;;;23.34;47.09;100900.19;4850244;29;20049;-72
2023/05/19 03:32:25;;;;;;;4.13;1.42;;;;;;;23.24;47.15;100904.81;4843476;29;20058;-72
2023/05/19 03:34:54;;;;;;;2.67;1.15;;;;;;;23.13;47.73;100899.75;4862888;29;20053;-71
2023/05/19 03:37:22;;;;;;;1.25;1.10;;;;;;;23.06;47.77;100903.41;4853395;29;20107;-71
2023/05/19 03:39:52;;;;;;;3.33;1.30;;;;;;;22.96;48.02;100913.25;4855504;29;20101;-71
2023/05/19 03:42:21;;;;;;;3.42;1.40;;;;;;;22.82;47.88;100917.94;4850588;29;20698;-72
2023/05/19 03:44:49;;;;;;;2.35;1.15;;;;;;;22.71;48.09;100926.03;4852030;29;20131;-71
2023/05/19 03:47:18;;;;;;;2.88;1.42;;;;;;;22.54;48.32;100918.41;4854300;29;20054;-71
2023/05/19 03:49:46;;;;;;;7.30;1.30;;;;;;;22.43;48.89;100930.06;4854720;29;20060;-71
2023/05/19 03:52:15;;;;;;;1.85;1.23;;;;;;;22.25;49.16;100936.50;4846773;29;20050;-71
2023/05/19 03:54:44;;;;;;;3.88;1.30;;;;;;;22.06;49.86;100933.22;4866991;29;20046;-72
2023/05/19 03:57:15;;;;;;;7.25;1.63;;;;;;;21.94;50.07;100943.06;4848438;29;20591;-72
2023/05/19 03:59:43;;;;;;;1.92;1.35;;;;;;;21.78;51.45;100952.06;4854655;29;20053;-72
2023/05/19 04:02:12;;;;;;;2.45;1.40;;;;;;;21.68;51.36;100958.34;4843457;29;20046;-71
2023/05/19 04:04:40;;;;;;;2.55;1.55;;;;;;;21.61;51.83;100962.81;4856314;29;20408;-72
2023/05/19 04:07:09;;;;;;;2.78;1.33;;;;;;;21.49;51.80;100968.25;4856846;29;20500;-72
2023/05/19 04:09:38;;;;;;;5.70;1.30;;;;;;;21.43;52.09;100963.91;4862216;29;20109;-72
2023/05/19 04:12:07;;;;;;;2.22;1.33;;;;;;;21.30;52.83;100971.06;4867501;29;20128;-72
2023/05/19 04:14:37;;;;;;;5.22;1.60;;;;;;;21.20;52.39;100969.41;4859513;29;20060;-72
2023/05/19 04:17:12;;;;;;;3.40;1.25;;;;;;;21.15;52.56;100983.53;4854577;29;20046;-73
2023/05/19 04:19:41;;;;;;;3.00;1.42;;;;;;;21.11;53.26;100985.31;4852935;29;20447;-72
2023/05/19 04:22:09;;;;;;;4.88;1.42;;;;;;;21.03;54.83;100989.78;4849282;29;20492;-75
2023/05/19 04:24:38;;;;;;;2.60;1.38;;;;;;;20.93;54.23;100988.97;4855826;29;20061;-72
2023/05/19 04:27:10;;;;;;;1.30;0.80;;;;;;;20.81;54.08;100991.75;4842279;29;20046;-71
2023/05/19 04:29:41;;;;;;;2.63;1.15;;;;;;;20.80;54.85;101005.75;4854342;29;20057;-72
2023/05/19 04:32:09;;;;;;;2.75;1.38;;;;;;;20.77;55.15;101000.53;4851406;29;20515;-71
2023/05/19 04:34:38;;;;;;;1.75;1.17;;;;;;;20.63;55.38;101001.50;4854133;29;20057;-73
2023/05/19 04:37:08;;;;;;;3.42;1.30;;;;;;;20.40;55.59;101006.03;4850953;29;20046;-72
2023/05/19 04:39:39;;;;;;;2.63;1.23;;;;;;;20.29;56.20;101012.25;4850134;29;20120;-71
2023/05/19 04:42:07;;;;;;;3.67;0.90;;;;;;;20.23;56.25;101009.66;4851968;29;20134;-72
2023/05/19 04:44:36;;;;;;;3.08;1.02;;;;;;;20.13;56.95;101018.47;4858694;29;20060;-70
2023/05/19 04:47:07;;;;;;;3.78;1.42;;;;;;;19.90;58.08;101021.22;4847032;29;20457;-71
2023/05/19 04:49:38;;;;;;;1.75;1.20;;;;;;;19.77;58.10;101023.03;4851546;29;20397;-70
2023/05/19 04:52:09;;;;;;;2.42;1.52;;;;;;;19.68;58.81;101017.78;4852164;29;20053;-71
2023/05/19 04:54:38;;;;;;;1.48;1.10;;;;;;;19.60;59.19;101020.44;4864918;29;20123;-71
2023/05/19 04:57:07;;;;;;;2.47;1.42;;;;;;;19.49;59.95;101019.59;4851253;29;20049;-72
2023/05/19 04:59:36;;;;;;;3.50;1.27;;;;;;;19.40;60.16;101027.47;4852805;29;20046;-73
2023/05/19 05:02:07;;;;;;;2.40;1.23;;;;;;;19.32;61.50;101024.03;4852005;29;20080;-74
2023/05/19 05:04:36;;;;;;;3.35;1.20;;;;;;;19.24;60.85;101022.28;4864021;29;20057;-75
2023/05/19 05:07:05;;;;;;;3.08;1.23;;;;;;;19.20;61.95;101024.94;4856182;29;20081;-74
2023/05/19 05:09:33;;;;;;;7.82;2.20;;;;;;;19.17;61.42;101035.41;4848707;29;20051;-75
2023/05/19 05:12:10;;;;;;;3.55;1.17;;;;;;;19.09;61.57;101040.66;4855512;29;20065;-73
2023/05/19 05:14:39;;;;;;;1.63;0.80;;;;;;;19.01;62.49;101035.44;4860496;29;20596;-74
2023/05/19 05:17:10;;;;;;;3.38;1.20;;;;;;;18.93;63.34;101042.44;4858346;29;20068;-73
2023/05/19 05:19:39;;;;;;;3.28;1.17;;;;;;;18.88;63.22;101048.56;4854956;29;20057;-73
2023/05/19 05:22:08;;;;;;;1.50;1.00;;;;;;;18.81;63.37;101059.03;4854803;29;20107;-73
2023/05/19 05:24:37;;;;;;;3.33;1.33;;;;;;;18.73;63.08;101059.88;4858092;29;20061;-73
2023/05/19 05:27:07;;;;;;;1.90;1.10;;;;;;;18.66;63.67;101068.59;4852190;29;20042;-73
2023/05/19 05:29:35;;;;;;;1.75;1.00;;;;;;;18.56;64.52;101062.47;4862562;29;20049;-73
2023/05/19 05:32:04;;;;;;;5.65;1.45;;;;;;;18.50;64.03;101067.69;4862041;29;20063;-73
2023/05/19 05:34:34;;;;;;;4.03;1.13;;;;;;;18.50;64.65;101062.47;4855296;29;20057;-72
2023/05/19 05:37:03;;;;;;;2.38;1.27;;;;;;;18.48;63.82;101075.53;4855316;29;20530;-73
2023/05/19 05:39:32;;;;;;;1.52;1.10;;;;;;;18.40;65.07;101077.28;4856869;29;20081;-73
2023/05/19 05:42:03;;;;;;;2.35;1.15;;;;;;;18.36;66.67;101071.16;4850489;29;20477;-73
2023/05/19 05:44:34;;;;;;;2.25;1.30;;;;;;;18.33;70.87;101080.78;4855089;29;20129;-72
2023/05/19 05:47:03;;;;;;;3.45;1.05;;;;;;;18.37;68.94;101082.50;4853729;29;20053;-74
2023/05/19 05:49:35;;;;;;;3.03;1.25;;;;;;;18.35;68.86;101089.50;4855126;29;20052;-72
2023/05/19 05:52:04;;;;;;;2.42;1.13;;;;;;;18.34;67.46;101087.75;4852316;29;20038;-72
2023/05/19 05:54:34;;;;;;;1.35;1.00;;;;;;;18.33;67.44;101091.25;4858017;29;20056;-74
2023/05/19 05:57:03;;;;;;;2.05;1.17;;;;;;;18.28;70.32;101082.47;4858030;29;20068;-73
2023/05/19 05:59:32;;;;;;;3.80;1.25;;;;;;;18.25;67.88;101090.34;4854900;29;20472;-73
2023/05/19 06:02:01;;;;;;;2.15;1.23;;;;;;;18.20;67.61;101091.19;4862564;29;20053;-72
2023/05/19 06:04:29;;;;;;;7.05;1.30;;;;;;;18.17;67.80;101093.81;4854183;29;20144;-73
2023/05/19 06:07:00;;;;;;;4.03;1.27;;;;;;;18.12;69.55;101087.69;4849177;29;20057;-73
2023/05/19 06:09:29;;;;;;;4.40;1.35;;;;;;;18.09;69.84;101090.28;4849422;29;20054;-73
2023/05/19 06:11:58;;;;;;;2.42;1.15;;;;;;;18.08;69.86;101093.78;4859780;29;20089;-73
2023/05/19 06:14:27;;;;;;;2.60;1.30;;;;;;;18.06;71.28;101087.66;4851589;29;20117;-72
2023/05/19 06:16:55;;;;;;;2.95;0.90;;;;;;;18.05;71.60;101096.38;4845615;29;20062;-73
2023/05/19 06:19:24;;;;;;;1.85;0.98;;;;;;;18.04;72.07;101089.38;4863307;29;20073;-72
2023/05/19 06:21:53;;;;;;;2.20;1.10;;;;;;;18.02;71.12;101091.13;4862635;29;20045;-73
2023/05/19 06:24:23;;;;;;;2.00;1.35;;;;;;;17.99;70.34;101101.59;4851399;29;20054;-73
2023/05/19 06:27:00;;;;;;;2.42;1.25;;;;;;;17.95;70.58;101091.97;4858728;29;20656;-73
2023/05/19 06:29:29;;;;;;;3.88;1.15;;;;;;;17.92;70.30;101099.81;4852089;29;20053;-73
2023/05/19 06:32:11;;;;;;;1.40;1.05;;;;;;;17.91;70.63;101103.28;4867107;29;20065;-74
2023/05/19 06:34:39;;;;;;;1.50;0.97;;;;;;;17.87;70.96;101112.03;4856381;29;20536;-72
2023/05/19 06:37:08;;;;;;;1.52;1.05;;;;;;;17.83;70.34;101112.84;4869573;29;20044;-73
2023/05/19 06:39:39;;;;;;;2.00;1.38;;;;;;;17.78;70.89;101116.28;4861480;29;20049;-73
2023/05/19 06:42:07;;;;;;;2.92;1.17;;;;;;;17.75;69.68;101113.66;4855983;29;20057;-74
2023/05/19 06:44:36;;;;;;;2.45;1.02;;;;;;;17.68;70.00;101111.84;4866921;29;20049;-73
2023/05/19 06:47:05;;;;;;;3.47;1.45;;;;;;;17.67;69.81;101104.88;4862622;29;20058;-74
2023/05/19 06:49:33;;;;;;;2.15;1.00;;;;;;;17.64;70.89;101110.09;4866310;29;20133;-74
2023/05/19 06:52:02;;;;;;;3.13;1.45;;;;;;;17.60;70.45;101113.56;4852877;29;20094;-73
2023/05/19 06:54:30;;;;;;;1.48;1.20;;;;;;;17.55;71.30;101117.91;4849732;29;20153;-73
2023/05/19 06:57:00;;;;;;;2.80;1.23;;;;;;;17.44;70.89;101107.34;4856655;29;20057;-74
2023/05/19 06:59:29;;;;;;;2.90;1.20;;;;;;;17.47;71.82;101116.97;4850719;29;20808;-74
2023/05/19 07:01:57;;;;;;;1.67;1.27;;;;;;;17.37;71.72;101119.50;4864854;29;20547;-73
2023/05/19 07:04:26;;;;;;;4.13;1.58;;;;;;;17.32;71.97;101122.97;4855295;29;20118;-73
2023/05/19 07:06:55;;;;;;;2.63;1.38;;;;;;;17.27;72.06;101129.88;4851865;29;20064;-73
2023/05/19 07:09:23;;;;;;;2.03;1.35;;;;;;;17.24;72.27;101141.19;4846170;29;20084;-72
2023/05/19 07:11:52;;;;;;;2.45;1.58;;;;;;;17.13;73.61;101141.13;4848508;29;20118;-73
2023/05/19 07:14:22;;;;;;;1.50;1.25;;;;;;;17.08;73.87;101141.94;4848531;29;20500;-72
2023/05/19 07:16:50;;;;;;;6.45;1.30;;;;;;;17.02;74.11;101134.03;4847447;29;20058;-73
2023/05/19 07:19:19;;;;;;;1.70;1.10;;;;;;;16.94;74.85;101137.44;4855149;29;20066;-72
2023/05/19 07:21:48;;;;;;;4.57;1.17;;;;;;;16.88;75.64;101142.63;4842926;29;20626;-73
2023/05/19 07:24:16;;;;;;;3.08;1.42;;;;;;;16.84;74.91;101140.84;4852857;29;20062;-72
2023/05/19 07:26:45;;;;;;;2.47;1.45;;;;;;;16.72;74.48;101131.13;4852890;29;20113;-73
2023/05/19 07:29:13;;;;;;;3.45;1.10;;;;;;;16.77;75.08;101144.22;4861408;29;20049;-73
2023/05/19 07:31:44;;;;;;;6.40;1.50;;;;;;;16.73;74.74;101142.44;4849308;29;20136;-73
2023/05/19 07:34:12;;;;;;;3.20;1.23;;;;;;;16.68;75.54;101145.00;4864574;29;20512;-73
2023/05/19 07:36:41;;;;;;;1.80;1.23;;;;;;;16.64;75.84;101142.34;4858319;29;20041;-74
2023/05/19 07:39:09;;;;;;;1.15;0.90;;;;;;;16.60;76.35;101140.56;4859522;29;20053;-73
2023/05/19 07:41:38;;;;;;;1.88;1.13;;;;;;;16.46;76.94;101133.44;4855086;29;20065;-73
2023/05/19 07:44:07;;;;;;;3.03;1.25;;;;;;;16.49;76.54;101159.59;4863007;29;20045;-73
2023/05/19 07:46:36;;;;;;;2.72;1.25;;;;;;;16.49;77.49;101158.69;4857776;29;20504;-73
2023/05/19 07:49:06;;;;;;;2.13;1.08;;;;;;;16.49;77.54;101157.00;4855363;29;20086;-73
2023/05/19 07:51:34;;;;;;;2.25;1.30;;;;;;;16.48;77.19;101156.97;4861817;29;20096;-75
2023/05/19 07:54:03;;;;;;;1.60;1.10;;;;;;;16.41;76.36;101144.69;4859307;29;20133;-72
2023/05/19 07:56:32;;;;;;;1.38;1.00;;;;;;;16.47;77.04;101153.47;4854491;29;20080;-75
2023/05/19 07:59:00;;;;;;;5.35;3.40;;;;;;;16.45;76.61;101159.56;4863730;29;20057;-74
2023/05/19 08:01:30;;;;;;;2.40;1.38;;;;;;;16.41;77.06;101152.53;4857198;29;20531;-73
2023/05/19 08:03:58;;;;;;;3.70;1.33;;;;;;;16.37;77.40;101158.56;4858798;29;20054;-74
2023/05/19 08:06:31;;;;;;;1.75;1.13;;;;;;;16.30;77.26;101158.47;4851113;29;20057;-73
2023/05/19 08:09:00;;;;;;;2.58;1.48;;;;;;;16.26;77.82;101153.19;4854065;29;20144;-73
2023/05/19 08:11:29;;;;;;;1.40;0.90;;;;;;;16.24;78.22;101154.91;4858048;29;20683;-73
2023/05/19 08:13:57;;;;;;;2.17;1.08;;;;;;;16.23;78.27;101150.56;4858330;29;20045;-73
2023/05/19 08:16:26;;;;;;;1.77;1.20;;;;;;;16.20;78.85;101155.75;4854221;29;20089;-73
2023/05/19 08:18:55;;;;;;;3.10;1.70;;;;;;;16.11;79.37;101154.78;4852292;29;20057;-73
2023/05/19 08:21:23;;;;;;;4.53;1.52;;;;;;;16.07;79.05;101155.56;4865222;29;20057;-73
2023/05/19 08:23:54;;;;;;;5.18;1.27;;;;;;;16.07;79.93;101163.41;4862972;29;20049;-71
2023/05/19 08:26:22;;;;;;;2.40;1.42;;;;;;;16.07;80.28;101162.53;4860964;29;20645;-72
2023/05/19 08:28:50;;;;;;;4.55;1.30;;;;;;;16.01;80.35;101162.44;4851099;29;20385;-73
2023/05/19 08:31:19;;;;;;;1.58;1.05;;;;;;;15.98;80.70;101167.63;4856026;29;20941;-73
2023/05/19 08:33:48;;;;;;;2.53;1.58;;;;;;;15.98;80.58;101171.13;4853766;29;20053;-73
2023/05/19 08:36:16;;;;;;;2.90;1.50;;;;;;;15.98;80.65;101178.06;4855508;29;20059;-73
2023/05/19 08:38:45;;;;;;;2.25;1.50;;;;;;;15.94;81.32;101174.53;4855971;29;20141;-72
2023/05/19 08:41:16;;;;;;;2.20;1.48;;;;;;;15.91;81.81;101174.50;4857743;29;20094;-74
2023/05/19 08:43:44;;;;;;;1.92;1.40;;;;;;;15.86;82.12;101176.16;4856560;29;20041;-74
2023/05/19 08:46:15;;;;;;;2.55;1.40;;;;;;;15.84;82.48;101183.97;4849027;29;20066;-73
2023/05/19 08:48:44;;;;;;;1.45;1.00;;;;;;;15.83;82.29;101184.84;4859115;29;20113;-73
2023/05/19 08:51:21;;;;;;;2.28;1.27;;;;;;;15.83;82.26;101176.13;4853860;29;20053;-73
2023/05/19 08:53:58;;;;;;;6.05;1.25;;;;;;;15.80;82.65;101182.16;4847967;29;20127;-74
2023/05/19 08:56:29;;;;;;;2.53;1.23;;;;;;;15.80;82.34;101186.50;4858043;29;20061;-72
2023/05/19 08:58:59;;;;;;;2.70;1.27;;;;;;;15.77;82.82;101191.69;4855811;29;20062;-71
2023/05/19 09:01:29;;;;;;;2.35;1.45;;;;;;;15.74;83.66;101186.44;4868140;29;20056;-72
2023/05/19 09:03:57;;;;;;;3.75;1.40;;;;;;;15.73;83.46;101184.66;4858341;29;20457;-72
2023/05/19 09:06:27;;;;;;;4.22;1.58;;;;;;;15.70;83.80;101182.84;4864147;29;20053;-73
2023/05/19 09:08:56;;;;;;;1.30;1.00;;;;;;;15.68;83.47;101188.03;4854948;29;20059;-72
2023/05/19 09:11:24;;;;;;;3.47;1.27;;;;;;;15.66;83.16;101192.34;4851163;29;20063;-73
2023/05/19 09:13:55;;;;;;;2.33;1.63;;;;;;;15.63;83.56;101188.84;4856074;29;20081;-72
2023/05/19 09:16:24;;;;;;;2.53;1.30;;;;;;;15.59;83.82;101187.91;4857160;29;20050;-73
2023/05/19 09:18:56;;;;;;;3.83;1.40;;;;;;;15.58;83.79;101190.50;4857064;29;20664;-72
2023/05/19 09:21:30;;;;;;;4.07;1.17;;;;;;;15.56;85.03;101187.88;4857331;29;20089;-73
2023/05/19 09:23:59;;;;;;;1.60;1.10;;;;;;;15.55;84.67;101190.44;4860564;29;20721;-73
2023/05/19 09:26:37;;;;;;;1.92;1.40;;;;;;;15.52;85.21;101196.47;4848855;29;20455;-73
2023/05/19 09:29:14;;;;;;;3.80;1.30;;;;;;;15.50;85.58;101187.75;4854118;29;20136;-72
2023/05/19 09:31:50;;;;;;;4.28;1.40;;;;;;;15.46;86.44;101185.94;4857744;29;20061;-72
2023/05/19 09:34:19;;;;;;;2.22;1.20;;;;;;;15.45;86.83;101189.41;4848444;29;20065;-72
2023/05/19 09:36:50;;;;;;;7.38;1.30;;;;;;;15.43;86.80;101186.78;4855408;29;20655;-73
2023/05/19 09:39:20;;;;;;;3.05;1.27;;;;;;;15.43;87.65;101186.78;4856514;29;20724;-72
2023/05/19 09:41:52;;;;;;;1.20;1.08;;;;;;;15.42;86.99;101191.97;4854888;29;20096;-72
2023/05/19 09:44:28;;;;;;;3.05;1.27;;;;;;;15.41;87.22;101190.22;4855858;29;20141;-73
2023/05/19 09:46:57;;;;;;;3.25;1.77;;;;;;;15.41;87.20;101190.22;4859635;29;20504;-73
2023/05/19 09:49:28;;;;;;;3.63;1.55;;;;;;;15.40;86.52;101199.78;4858542;29;20088;-73
2023/05/19 09:51:57;;;;;;;2.20;1.48;;;;;;;15.39;87.17;101191.91;4859721;29;20171;-73
2023/05/19 09:54:26;;;;;;;1.98;1.13;;;;;;;15.40;87.81;101189.34;4852342;29;20530;-72
2023/05/19 09:56:59;;;;;;;3.08;1.00;;;;;;;15.39;86.86;101189.31;4858609;29;20045;-73
2023/05/19 09:59:30;;;;;;;3.55;1.10;;;;;;;15.38;87.26;101187.56;4848404;29;20053;-73
2023/05/19 10:01:59;;;;;;;2.08;1.02;;;;;;;15.36;87.27;101187.53;4859604;29;20049;-73
2023/05/19 10:04:29;;;;;;;1.02;0.90;;;;;;;15.34;86.23;101188.34;4858507;29;20049;-74
2023/05/19 10:06:59;;;;;;;1.50;1.00;;;;;;;15.31;85.55;101188.31;4847120;29;20511;-72
2023/05/19 10:09:29;;;;;;;1.30;1.00;;;;;;;15.29;85.08;101189.16;4869030;29;20488;-73
2023/05/19 10:11:59;;;;;;;2.22;1.10;;;;;;;15.26;85.93;101189.09;4855738;29;20046;-73
2023/05/19 10:14:30;;;;;;;3.70;1.52;;;;;;;15.25;87.04;101196.91;4861217;29;20105;-73
2023/05/19 10:17:00;;;;;;;4.40;1.20;;;;;;;15.24;85.47;101200.38;4856900;29;20491;-73
2023/05/19 10:19:29;;;;;;;2.40;1.63;;;;;;;15.21;85.98;101195.97;4847856;29;20054;-72
2023/05/19 10:21:58;;;;;;;2.13;1.48;;;;;;;15.17;86.11;101196.78;4849507;29;20041;-73
2023/05/19 10:24:26;;;;;;;2.90;1.38;;;;;;;15.14;85.64;101196.72;4846024;29;20057;-73
2023/05/19 10:26:59;;;;;;;1.77;1.25;;;;;;;15.09;85.98;101200.94;4863800;29;20516;-72
2023/05/19 10:29:33;;;;;;;2.08;1.40;;;;;;;15.05;86.42;101202.66;4856856;29;20050;-73
2023/05/19 10:32:07;;;;;;;3.38;1.65;;;;;;;14.99;87.38;101201.66;4864085;29;20082;-72
2023/05/19 10:34:59;;;;;;;1.38;1.23;;;;;;;14.90;88.59;101198.88;4841709;29;20058;-73
2023/05/19 10:37:38;;;;;;;3.37;1.17;;;;;;;14.88;88.53;101197.09;4836385;29;20047;-73
2023/05/19 10:40:13;;;;;;;2.38;1.05;;;;;;;14.84;87.59;101197.91;4830470;29;20134;-73
2023/05/19 10:42:47;;;;;;;6.03;1.23;;;;;;;14.81;87.24;101205.66;4840303;29;20057;-73
2023/05/19 10:45:20;;;;;;;1.75;1.20;;;;;;;14.78;88.79;101204.72;4839186;29;20292;-73
2023/05/19 10:47:50;;;;;;;1.92;1.30;;;;;;;14.75;88.40;101210.75;4841265;29;20130;-73
2023/05/19 10:50:20;;;;;;;1.83;1.00;;;;;;;14.72;88.37;101209.81;4844153;29;20509;-72
2023/05/19 10:52:55;;;;;;;3.13;1.10;;;;;;;14.74;88.55;101208.13;4840822;29;20042;-73
2023/05/19 10:55:48;;;;;;;1.48;1.00;;;;;;;14.74;87.66;101216.81;4835903;29;20093;-72
2023/05/19 10:58:16;;;;;;;1.75;1.13;;;;;;;14.75;87.71;101221.19;4834034;29;20145;-72
2023/05/19 11:00:46;;;;;;;3.45;1.58;;;;;;;14.74;88.48;101219.41;4837253;29;20528;-72
2023/05/19 11:03:16;;;;;;;3.45;1.55;;;;;;;14.71;89.60;101219.34;4829634;29;20067;-72
2023/05/19 11:05:45;;;;;;;2.88;1.73;;;;;;;14.65;89.74;101214.00;4836098;29;20051;-73
2023/05/19 11:08:14;;;;;;;2.70;1.80;;;;;;;14.63;89.45;101210.50;4844041;29;20077;-72
2023/05/19 11:10:45;;;;;;;2.65;1.98;;;;;;;14.62;88.88;101213.97;4853676;29;20060;-73
2023/05/19 11:13:21;;;;;;;2.28;1.70;;;;;;;14.63;89.63;101220.91;4842089;29;20045;-72
2023/05/19 11:15:51;;;;;;;3.15;1.73;;;;;;;14.63;90.02;101220.91;4834388;29;20082;-72
2023/05/19 11:18:21;;;;;;;2.22;1.38;;;;;;;14.62;90.04;101222.66;4844169;29;20096;-72
2023/05/19 11:21:01;;;;;;;3.35;1.88;;;;;;;14.61;89.65;101222.59;4839706;29;20053;-72
2023/05/19 11:23:34;;;;;;;1.65;1.20;;;;;;;14.60;89.98;101226.06;4839732;29;20050;-72
2023/05/19 11:26:03;;;;;;;3.50;1.60;;;;;;;14.61;90.91;101233.03;4843661;29;20146;-72
2023/05/19 11:28:32;;;;;;;2.08;1.40;;;;;;;14.59;91.10;101229.50;4831517;29;20583;-73
2023/05/19 11:31:06;;;;;;;2.67;1.73;;;;;;;14.56;90.75;101229.47;4827818;29;20050;-72
2023/05/19 11:33:35;;;;;;;2.38;1.45;;;;;;;14.53;90.76;101226.75;4844608;29;20061;-72
2023/05/19 11:36:05;;;;;;;6.00;1.83;;;;;;;14.50;91.60;101231.88;4854113;29;20049;-71
2023/05/19 11:38:35;;;;;;;4.07;1.60;;;;;;;14.45;91.17;101227.50;4857440;29;20049;-74
2023/05/19 11:41:05;;;;;;;5.32;1.80;;;;;;;14.45;91.55;101227.50;4857691;29;20575;-72